createdAt,value
2023-08-12T00:00:42.323Z,2.95
2023-08-12T00:03:13.293Z,3.42
2023-08-12T00:05:45.144Z,1.98
2023-08-12T00:08:16.032Z,3.10
2023-08-12T00:10:47.203Z,2.65
2023-08-12T00:13:22.223Z,3.45
2023-08-12T00:15:53.655Z,2.45
2023-08-12T00:18:24.616Z,1.95
2023-08-12T00:20:56.496Z,2.97
2023-08-12T00:23:27.386Z,3.45
2023-08-12T00:26:02.757Z,1.63
2023-08-12T00:28:37.149Z,1.20
2023-08-12T00:31:08.185Z,1.90
2023-08-12T00:33:39.136Z,3.47
2023-08-12T00:36:10.552Z,1.52
2023-08-12T00:38:41.476Z,2.35
2023-08-12T00:41:12.389Z,2.05
2023-08-12T00:43:45.858Z,2.60
2023-08-12T00:46:17.805Z,1.73
2023-08-12T00:48:48.698Z,2.83
2023-08-12T00:51:20.954Z,3.63
2023-08-12T00:53:52.271Z,2.45
2023-08-12T00:56:25.182Z,2.67
2023-08-12T00:58:58.762Z,2.40
2023-08-12T01:01:30.857Z,10.48
2023-08-12T01:04:01.961Z,1.83
2023-08-12T01:06:32.962Z,2.28
2023-08-12T01:09:06.583Z,2.47
2023-08-12T01:11:42.832Z,2.50
2023-08-12T01:14:22.062Z,0.77
2023-08-12T01:16:57.290Z,2.35
2023-08-12T01:19:37.135Z,5.32
2023-08-12T01:22:12.170Z,3.22
2023-08-12T01:24:46.992Z,2.58
2023-08-12T01:27:18.784Z,3.28
2023-08-12T01:29:53.022Z,2.25
2023-08-12T01:32:33.272Z,5.13
2023-08-12T01:35:11.319Z,3.58
2023-08-12T01:37:43.451Z,2.30
2023-08-12T01:40:19.892Z,3.38
2023-08-12T01:42:52.260Z,2.13
2023-08-12T01:45:23.479Z,3.60
2023-08-12T01:47:54.506Z,2.15
2023-08-12T01:50:27.226Z,4.03
2023-08-12T01:52:59.319Z,2.20
2023-08-12T01:55:32.840Z,2.95
2023-08-12T01:58:03.687Z,2.42
2023-08-12T02:00:35.146Z,2.95
2023-08-12T02:03:06.197Z,3.13
2023-08-12T02:05:38.567Z,3.25
2023-08-12T02:08:10.202Z,3.65
2023-08-12T02:10:43.763Z,2.22
2023-08-12T02:13:15.637Z,1.85
2023-08-12T02:15:47.622Z,3.00
2023-08-12T02:18:18.481Z,4.38
2023-08-12T02:20:52.002Z,3.15
2023-08-12T02:23:22.894Z,2.63
2023-08-12T02:25:56.916Z,1.50
2023-08-12T02:28:27.833Z,1.05
2023-08-12T02:30:58.693Z,5.07
2023-08-12T02:33:29.585Z,8.05
2023-08-12T02:36:00.451Z,3.67
2023-08-12T02:38:31.442Z,2.75
2023-08-12T02:41:04.985Z,2.78
2023-08-12T02:43:36.531Z,3.10
2023-08-12T02:46:08.503Z,1.75
2023-08-12T02:48:40.303Z,5.65
2023-08-12T02:51:11.399Z,4.55
2023-08-12T02:53:42.377Z,2.08
2023-08-12T02:56:15.926Z,4.10
2023-08-12T02:58:46.884Z,5.43
2023-08-12T03:01:17.848Z,3.80
2023-08-12T03:03:48.728Z,4.55
2023-08-12T03:06:19.719Z,3.78
2023-08-12T03:08:50.878Z,3.33
2023-08-12T03:11:24.399Z,4.47
2023-08-12T03:13:55.915Z,6.03
2023-08-12T03:16:29.447Z,5.28
2023-08-12T03:19:01.176Z,4.72
2023-08-12T03:21:32.193Z,3.35
2023-08-12T03:24:03.679Z,4.28
2023-08-12T03:26:37.632Z,4.38
2023-08-12T03:29:09.462Z,4.47
2023-08-12T03:31:43.437Z,7.20
2023-08-12T03:34:15.442Z,3.72
2023-08-12T03:36:49.865Z,4.60
2023-08-12T03:39:22.506Z,5.68
2023-08-12T03:41:57.076Z,6.40
2023-08-12T03:44:28.493Z,2.90
2023-08-12T03:46:59.468Z,4.55
2023-08-12T03:49:31.574Z,5.25
2023-08-12T03:52:02.440Z,4.82
2023-08-12T03:54:33.440Z,3.30
2023-08-12T03:57:07.906Z,3.35
2023-08-12T03:59:39.008Z,9.32
2023-08-12T04:02:10.924Z,3.88
2023-08-12T04:04:42.360Z,6.40
2023-08-12T04:07:13.448Z,7.57
2023-08-12T04:09:44.585Z,7.40
2023-08-12T04:12:18.005Z,5.65
2023-08-12T04:14:49.429Z,4.57
2023-08-12T04:17:20.317Z,7.75
2023-08-12T04:19:51.492Z,6.82
2023-08-12T04:22:23.801Z,3.08
2023-08-12T04:24:54.803Z,2.78
2023-08-12T04:27:28.450Z,5.57
2023-08-12T04:29:59.376Z,7.43
2023-08-12T04:32:32.168Z,6.55
2023-08-12T04:35:03.846Z,7.45
2023-08-12T04:37:34.825Z,7.53
2023-08-12T04:40:08.790Z,3.00
2023-08-12T04:42:42.369Z,6.65
2023-08-12T04:45:14.326Z,5.65
2023-08-12T04:47:45.305Z,4.68
2023-08-12T04:50:19.691Z,5.63
2023-08-12T04:52:51.003Z,5.88
2023-08-12T04:55:23.656Z,3.50
2023-08-12T04:57:57.612Z,4.53
2023-08-12T05:00:31.309Z,6.50
2023-08-12T05:03:02.655Z,2.53
2023-08-12T05:05:33.915Z,8.70
2023-08-12T05:08:04.740Z,8.85
2023-08-12T05:10:36.915Z,6.32
2023-08-12T05:13:10.458Z,8.00
2023-08-12T05:15:41.658Z,9.02
2023-08-12T05:18:13.135Z,4.85
2023-08-12T05:20:46.917Z,7.45
2023-08-12T05:23:18.770Z,8.40
2023-08-12T05:25:49.697Z,7.05
2023-08-12T05:28:23.233Z,7.15
2023-08-12T05:30:56.313Z,6.28
2023-08-12T05:33:27.297Z,9.68
2023-08-12T05:35:58.288Z,10.48
2023-08-12T05:38:29.191Z,5.32
2023-08-12T05:41:00.027Z,8.95
2023-08-12T05:43:33.626Z,8.30
2023-08-12T05:46:04.591Z,4.03
2023-08-12T05:48:35.420Z,8.10
2023-08-12T05:51:06.407Z,8.32
2023-08-12T05:53:37.846Z,10.82
2023-08-12T05:56:09.141Z,9.88
2023-08-12T05:58:42.678Z,6.32
2023-08-12T06:01:13.459Z,14.02
2023-08-12T06:03:44.384Z,7.30
2023-08-12T06:06:15.211Z,7.57
2023-08-12T06:08:46.088Z,10.00
2023-08-12T06:11:16.849Z,9.13
2023-08-12T06:13:50.380Z,9.32
2023-08-12T06:16:21.410Z,8.35
2023-08-12T06:18:52.312Z,6.22
2023-08-12T06:21:23.171Z,9.38
2023-08-12T06:23:54.035Z,8.10
2023-08-12T06:26:25.025Z,10.68
2023-08-12T06:28:58.518Z,8.02
2023-08-12T06:31:29.458Z,11.00
2023-08-12T06:34:00.790Z,10.20
2023-08-12T06:36:31.667Z,8.75
2023-08-12T06:39:02.906Z,6.55
2023-08-12T06:41:33.762Z,11.02
2023-08-12T06:44:07.740Z,9.45
2023-08-12T06:46:38.648Z,9.70
2023-08-12T06:49:09.639Z,5.03
2023-08-12T06:51:40.452Z,15.35
2023-08-12T06:54:11.303Z,6.70
2023-08-12T06:56:42.235Z,9.93
2023-08-12T06:59:15.786Z,8.55
2023-08-12T07:01:46.853Z,9.68
2023-08-12T07:04:17.882Z,11.20
2023-08-12T07:06:48.721Z,10.10
2023-08-12T07:09:19.551Z,7.70
2023-08-12T07:11:50.404Z,10.25
2023-08-12T07:14:23.917Z,7.20
2023-08-12T07:16:54.820Z,9.82
2023-08-12T07:19:25.988Z,12.00
2023-08-12T07:21:57.111Z,8.40
2023-08-12T07:24:28.118Z,10.90
2023-08-12T07:26:59.466Z,8.00
2023-08-12T07:29:32.954Z,7.78
2023-08-12T07:32:03.863Z,10.98
2023-08-12T07:34:34.817Z,10.80
2023-08-12T07:37:05.633Z,13.65
2023-08-12T07:39:36.509Z,6.50
2023-08-12T07:42:08.039Z,10.75
2023-08-12T07:44:41.564Z,8.63
2023-08-12T07:47:12.479Z,8.63
2023-08-12T07:49:43.433Z,6.95
2023-08-12T07:52:14.658Z,8.88
2023-08-12T07:54:45.798Z,12.25
2023-08-12T07:57:16.842Z,14.52
2023-08-12T07:59:50.365Z,8.90
2023-08-12T08:02:21.405Z,8.02
2023-08-12T08:04:52.360Z,11.25
2023-08-12T08:07:23.331Z,10.48
2023-08-12T08:09:55.990Z,7.63
2023-08-12T08:12:26.992Z,12.30
2023-08-12T08:15:00.421Z,10.73
2023-08-12T08:17:31.371Z,9.18
2023-08-12T08:20:02.358Z,13.75
2023-08-12T08:22:33.238Z,16.02
2023-08-12T08:25:04.182Z,14.05
2023-08-12T08:27:35.559Z,12.48
2023-08-12T08:30:10.521Z,15.55
2023-08-12T08:32:41.358Z,11.80
2023-08-12T08:35:12.528Z,11.32
2023-08-12T08:37:45.838Z,9.13
2023-08-12T08:40:19.310Z,11.95
2023-08-12T08:42:54.364Z,12.98
2023-08-12T08:45:28.724Z,12.00
2023-08-12T08:48:00.486Z,11.73
2023-08-12T08:50:32.284Z,10.90
2023-08-12T08:53:06.524Z,17.95
2023-08-12T08:55:37.446Z,12.30
2023-08-12T08:58:08.720Z,10.65
2023-08-12T09:00:43.257Z,11.80
2023-08-12T09:03:14.977Z,9.52
2023-08-12T09:05:47.108Z,15.73
2023-08-12T09:08:18.932Z,13.00
2023-08-12T09:10:51.704Z,10.90
2023-08-12T09:13:22.740Z,11.93
2023-08-12T09:15:56.312Z,11.68
2023-08-12T09:18:27.372Z,8.05
2023-08-12T09:20:58.412Z,20.50
2023-08-12T09:23:31.056Z,18.50
2023-08-12T09:26:02.012Z,8.52
2023-08-12T09:28:33.649Z,9.98
2023-08-12T09:31:07.170Z,13.43
2023-08-12T09:33:43.555Z,10.45
2023-08-12T09:36:14.505Z,10.30
2023-08-12T09:38:45.522Z,12.43
2023-08-12T09:41:16.566Z,19.10
2023-08-12T09:43:47.731Z,9.90
2023-08-12T09:46:21.304Z,14.75
2023-08-12T09:48:53.199Z,10.13
2023-08-12T09:51:24.703Z,10.43
2023-08-12T09:53:56.644Z,12.25
2023-08-12T09:56:29.682Z,11.70
2023-08-12T09:59:01.493Z,14.82
2023-08-12T10:01:35.171Z,10.70
2023-08-12T10:04:09.373Z,11.15
2023-08-12T10:06:40.522Z,9.52
2023-08-12T10:09:12.611Z,11.27
2023-08-12T10:11:45.084Z,9.88
2023-08-12T10:14:16.552Z,12.35
2023-08-12T10:16:51.147Z,12.93
2023-08-12T10:19:26.629Z,11.90
2023-08-12T10:22:01.063Z,9.05
2023-08-12T10:24:32.185Z,11.30
2023-08-12T10:27:03.377Z,10.90
2023-08-12T10:29:34.673Z,10.98
2023-08-12T10:32:08.882Z,12.70
2023-08-12T10:34:39.990Z,11.77
2023-08-12T10:37:14.298Z,9.40
2023-08-12T10:39:45.343Z,11.45
2023-08-12T10:42:16.228Z,9.77
2023-08-12T10:44:56.022Z,12.43
2023-08-12T10:47:29.729Z,10.52
2023-08-12T10:50:02.304Z,12.45
2023-08-12T10:52:34.191Z,9.80
2023-08-12T10:55:23.471Z,10.93
2023-08-12T10:57:57.255Z,11.20
2023-08-12T11:00:30.627Z,9.52
2023-08-12T11:03:04.192Z,7.75
2023-08-12T11:05:41.690Z,9.27
2023-08-12T11:08:12.741Z,12.93
2023-08-12T11:10:44.617Z,8.57
2023-08-12T11:13:15.540Z,10.82
2023-08-12T11:15:48.865Z,8.57
2023-08-12T11:18:23.855Z,8.18
2023-08-12T11:20:55.753Z,9.70
2023-08-12T11:23:26.934Z,11.68
2023-08-12T11:25:57.970Z,8.10
2023-08-12T11:28:31.888Z,9.05
2023-08-12T11:31:03.051Z,12.30
2023-08-12T11:33:37.872Z,6.30
2023-08-12T11:36:09.436Z,9.90
2023-08-12T11:38:40.611Z,10.20
2023-08-12T11:41:11.526Z,10.82
2023-08-12T11:43:42.645Z,8.40
2023-08-12T11:46:13.725Z,11.60
2023-08-12T11:48:50.870Z,9.45
2023-08-12T11:51:22.863Z,11.38
2023-08-12T11:53:53.833Z,8.48
2023-08-12T11:56:24.950Z,9.30
2023-08-12T11:58:57.247Z,6.22
2023-08-12T12:01:29.883Z,11.90
2023-08-12T12:04:04.697Z,10.93
2023-08-12T12:06:37.288Z,7.05
2023-08-12T12:09:11.300Z,8.27
2023-08-12T12:11:43.144Z,11.35
2023-08-12T12:14:14.659Z,10.20
2023-08-12T12:16:46.974Z,8.82
2023-08-12T12:19:23.401Z,10.50
2023-08-12T12:21:55.588Z,10.25
2023-08-12T12:24:26.550Z,14.10
2023-08-12T12:26:57.435Z,10.02
2023-08-12T12:29:28.360Z,8.40
2023-08-12T12:31:59.177Z,8.20
2023-08-12T12:34:32.657Z,9.15
2023-08-12T12:37:03.572Z,7.93
2023-08-12T12:39:34.740Z,9.55
2023-08-12T12:42:05.619Z,10.70
2023-08-12T12:44:36.608Z,13.25
2023-08-12T12:47:08.442Z,10.50
2023-08-12T12:49:43.220Z,8.23
2023-08-12T12:52:14.363Z,8.13
2023-08-12T12:54:45.590Z,8.20
2023-08-12T12:57:16.418Z,11.10
2023-08-12T12:59:47.448Z,8.85
2023-08-12T13:02:18.445Z,7.82
2023-08-12T13:04:52.095Z,9.70
2023-08-12T13:07:23.041Z,9.90
2023-08-12T13:09:54.021Z,12.63
2023-08-12T13:12:24.908Z,7.97
2023-08-12T13:14:55.729Z,7.68
2023-08-12T13:17:26.701Z,12.07
2023-08-12T13:20:00.333Z,9.48
2023-08-12T13:22:31.291Z,8.98
2023-08-12T13:25:02.443Z,8.98
2023-08-12T13:27:34.585Z,11.43
2023-08-12T13:30:05.753Z,12.88
2023-08-12T13:32:36.643Z,9.05
2023-08-12T13:35:12.560Z,11.52
2023-08-12T13:37:43.445Z,17.33
2023-08-12T13:40:16.580Z,9.07
2023-08-12T13:42:47.728Z,10.50
2023-08-12T13:45:18.671Z,8.23
2023-08-12T13:47:49.696Z,12.65
2023-08-12T13:50:23.882Z,10.13
2023-08-12T13:52:54.746Z,10.48
2023-08-12T13:55:25.774Z,10.68
2023-08-12T13:57:56.705Z,11.95
2023-08-12T14:00:27.983Z,12.57
2023-08-12T14:02:59.043Z,11.77
2023-08-12T14:05:32.663Z,13.27
2023-08-12T14:08:03.596Z,13.38
2023-08-12T14:10:34.684Z,9.80
2023-08-12T14:13:05.594Z,8.95
2023-08-12T14:15:36.340Z,11.30
2023-08-12T14:18:07.818Z,9.45
2023-08-12T14:20:41.677Z,9.82
2023-08-12T14:23:12.838Z,14.98
2023-08-12T14:25:43.756Z,11.52
2023-08-12T14:28:14.608Z,10.05
2023-08-12T14:30:45.451Z,10.85
2023-08-12T14:33:16.373Z,13.23
2023-08-12T14:35:49.850Z,7.47
2023-08-12T14:38:20.931Z,13.10
2023-08-12T14:40:52.651Z,10.27
2023-08-12T14:43:23.853Z,12.75
2023-08-12T14:45:54.822Z,7.80
2023-08-12T14:48:25.696Z,12.02
2023-08-12T14:50:59.914Z,11.55
2023-08-12T14:53:31.782Z,11.15
2023-08-12T14:56:02.754Z,9.98
2023-08-12T14:58:33.765Z,13.80
2023-08-12T15:01:04.628Z,10.60
2023-08-12T15:03:35.677Z,12.27
2023-08-12T15:06:09.566Z,12.48
2023-08-12T15:08:40.571Z,12.80
2023-08-12T15:11:11.486Z,16.25
2023-08-12T15:13:42.341Z,10.82
2023-08-12T15:16:13.469Z,11.00
2023-08-12T15:18:44.442Z,9.45
2023-08-12T15:21:18.217Z,9.88
2023-08-12T15:23:49.136Z,13.52
2023-08-12T15:26:20.117Z,9.80
2023-08-12T15:28:51.008Z,9.98
2023-08-12T15:31:21.960Z,8.65
2023-08-12T15:33:52.932Z,8.13
2023-08-12T15:36:26.316Z,9.50
2023-08-12T15:38:57.370Z,7.82
2023-08-12T15:41:28.457Z,10.93
2023-08-12T15:43:59.399Z,6.97
2023-08-12T15:46:30.380Z,6.53
2023-08-12T15:49:01.407Z,8.18
2023-08-12T15:51:35.001Z,6.30
2023-08-12T15:54:06.086Z,8.70
2023-08-12T15:56:38.424Z,8.32
2023-08-12T15:59:10.224Z,6.80
2023-08-12T16:01:41.229Z,8.55
2023-08-12T16:04:12.256Z,6.57
2023-08-12T16:06:45.847Z,6.97
2023-08-12T16:09:19.347Z,8.13
2023-08-12T16:11:51.573Z,10.32
2023-08-12T16:14:22.561Z,8.00
2023-08-12T16:16:53.481Z,8.07
2023-08-12T16:19:28.938Z,9.60
2023-08-12T16:22:04.671Z,8.10
2023-08-12T16:24:35.841Z,10.32
2023-08-12T16:27:07.322Z,13.85
2023-08-12T16:29:51.016Z,14.13
2023-08-12T16:32:22.636Z,10.85
2023-08-12T16:34:53.796Z,16.35
2023-08-12T16:37:27.812Z,13.13
2023-08-12T16:39:58.853Z,14.18
2023-08-12T16:42:29.885Z,13.60
2023-08-12T16:45:01.072Z,11.77
2023-08-12T16:47:32.609Z,16.60
2023-08-12T16:50:03.727Z,13.13
2023-08-12T16:52:37.224Z,12.13
2023-08-12T16:55:08.901Z,17.25
2023-08-12T16:57:39.900Z,10.90
2023-08-12T17:00:12.242Z,11.38
2023-08-12T17:02:43.394Z,15.38
2023-08-12T17:05:14.764Z,11.27
2023-08-12T17:07:48.330Z,11.38
2023-08-12T17:10:19.392Z,13.55
2023-08-12T17:12:50.464Z,15.35
2023-08-12T17:15:21.614Z,12.88
2023-08-12T17:17:52.555Z,13.07
2023-08-12T17:20:23.716Z,11.43
2023-08-12T17:22:57.381Z,11.43
2023-08-12T17:25:28.354Z,12.95
2023-08-12T17:27:59.385Z,13.18
2023-08-12T17:30:31.528Z,12.93
2023-08-12T17:33:02.717Z,13.50
2023-08-12T17:35:34.049Z,11.23
2023-08-12T17:38:12.509Z,14.82
2023-08-12T17:40:43.484Z,12.82
2023-08-12T17:43:16.947Z,12.95
2023-08-12T17:45:48.896Z,15.23
2023-08-12T17:48:20.034Z,12.57
2023-08-12T17:50:51.155Z,13.38
2023-08-12T17:53:24.749Z,10.07
2023-08-12T17:55:55.829Z,11.73
2023-08-12T17:58:26.871Z,10.75
2023-08-12T18:00:57.835Z,16.70
2023-08-12T18:03:29.329Z,11.55
2023-08-12T18:06:00.999Z,13.48
2023-08-12T18:08:34.618Z,14.38
2023-08-12T18:11:06.149Z,15.55
2023-08-12T18:13:37.213Z,17.35
2023-08-12T18:16:08.674Z,12.15
2023-08-12T18:18:39.584Z,12.95
2023-08-12T18:21:10.733Z,10.60
2023-08-12T18:23:44.338Z,14.15
2023-08-12T18:26:15.246Z,16.90
2023-08-12T18:28:46.211Z,10.93
2023-08-12T18:31:17.216Z,13.00
2023-08-12T18:33:48.166Z,15.55
2023-08-12T18:36:18.989Z,13.95
2023-08-12T18:38:52.479Z,14.48
2023-08-12T18:41:23.387Z,15.48
2023-08-12T18:43:54.273Z,13.57
2023-08-12T18:46:25.406Z,17.65
2023-08-12T18:48:56.419Z,13.20
2023-08-12T18:51:27.606Z,14.68
2023-08-12T18:54:01.083Z,18.27
2023-08-12T18:56:32.173Z,17.42
2023-08-12T18:59:03.455Z,12.05
2023-08-12T19:01:34.444Z,13.25
2023-08-12T19:04:06.364Z,15.23
2023-08-12T19:06:37.568Z,13.20
2023-08-12T19:09:11.453Z,17.33
2023-08-12T19:11:42.615Z,20.05
2023-08-12T19:14:13.896Z,15.32
2023-08-12T19:16:44.811Z,15.18
2023-08-12T19:19:17.386Z,15.05
2023-08-12T19:21:49.079Z,14.38
2023-08-12T19:24:36.909Z,16.40
2023-08-12T19:27:09.088Z,13.63
2023-08-12T19:29:40.197Z,17.75
2023-08-12T19:32:11.685Z,16.30
2023-08-12T19:34:43.454Z,15.00
2023-08-12T19:37:14.362Z,16.08
2023-08-12T19:39:47.867Z,19.38
2023-08-12T19:42:18.881Z,16.75
2023-08-12T19:44:49.996Z,16.35
2023-08-12T19:47:21.034Z,16.05
2023-08-12T19:49:54.273Z,18.88
2023-08-12T19:52:25.335Z,16.40
2023-08-12T19:54:59.033Z,21.27
2023-08-12T19:57:30.014Z,18.77
2023-08-12T20:00:01.395Z,12.88
2023-08-12T20:02:43.822Z,21.17
2023-08-12T20:05:17.255Z,24.20
2023-08-12T20:07:49.636Z,17.95
2023-08-12T20:10:27.172Z,20.63
2023-08-12T20:13:09.164Z,18.40
2023-08-12T20:15:40.262Z,9.57
2023-08-12T20:18:11.345Z,17.40
2023-08-12T20:20:42.602Z,16.42
2023-08-12T20:23:15.381Z,19.30
2023-08-12T20:25:49.360Z,18.52
2023-08-12T20:28:20.311Z,19.48
2023-08-12T20:30:51.285Z,18.10
2023-08-12T20:33:22.282Z,18.88
2023-08-12T20:35:53.944Z,15.02
2023-08-12T20:38:24.955Z,18.83
2023-08-12T20:40:58.496Z,18.13
2023-08-12T20:43:29.504Z,16.17
2023-08-12T20:46:00.601Z,21.83
2023-08-12T20:48:31.566Z,17.58
2023-08-12T20:51:02.722Z,18.55
2023-08-12T20:53:34.054Z,15.88
2023-08-12T20:56:08.176Z,17.60
2023-08-12T20:58:39.026Z,19.75
2023-08-12T21:01:10.081Z,21.05
2023-08-12T21:03:41.306Z,17.45
2023-08-12T21:06:13.140Z,15.52
2023-08-12T21:08:44.336Z,16.95
2023-08-12T21:11:17.913Z,20.73
2023-08-12T21:13:48.830Z,17.48
2023-08-12T21:16:19.699Z,15.80
2023-08-12T21:18:50.747Z,16.80
2023-08-12T21:21:21.723Z,17.00
2023-08-12T21:23:52.734Z,18.05
2023-08-12T21:26:26.327Z,18.35
2023-08-12T21:28:57.191Z,17.13
2023-08-12T21:31:28.184Z,19.58
2023-08-12T21:33:59.214Z,11.45
2023-08-12T21:36:30.261Z,18.88
2023-08-12T21:39:03.578Z,21.67
2023-08-12T21:41:37.542Z,15.18
2023-08-12T21:44:09.606Z,15.63
2023-08-12T21:46:40.612Z,23.23
2023-08-12T21:49:11.540Z,23.42
2023-08-12T21:51:42.760Z,17.65
2023-08-12T21:54:13.839Z,19.35
2023-08-12T21:56:47.426Z,24.85
2023-08-12T21:59:20.391Z,20.42
2023-08-12T22:01:51.457Z,24.88
2023-08-12T22:04:22.337Z,17.27
2023-08-12T22:06:53.220Z,14.95
2023-08-12T22:09:24.703Z,22.35
2023-08-12T22:11:58.267Z,22.15
2023-08-12T22:14:29.959Z,21.50
2023-08-12T22:17:01.438Z,17.58
2023-08-12T22:19:32.500Z,18.75
2023-08-12T22:22:17.103Z,23.77
2023-08-12T22:24:49.999Z,14.65
2023-08-12T22:27:23.520Z,14.77
2023-08-12T22:29:54.457Z,18.60
2023-08-12T22:32:25.401Z,18.75
2023-08-12T22:34:56.348Z,20.13
2023-08-12T22:37:27.292Z,22.02
2023-08-12T22:39:58.090Z,19.92
2023-08-12T22:42:31.744Z,14.30
2023-08-12T22:45:02.812Z,18.25
2023-08-12T22:47:33.731Z,16.88
2023-08-12T22:50:05.465Z,17.60
2023-08-12T22:52:36.450Z,20.65
2023-08-12T22:55:07.976Z,10.75
2023-08-12T22:57:41.823Z,13.50
2023-08-12T23:00:13.953Z,15.77
2023-08-12T23:02:44.980Z,12.77
2023-08-12T23:05:16.187Z,17.00
2023-08-12T23:07:47.213Z,15.82
2023-08-12T23:10:18.104Z,19.92
2023-08-12T23:12:51.848Z,18.08
2023-08-12T23:15:23.030Z,18.55
2023-08-12T23:17:53.906Z,18.27
2023-08-12T23:20:24.876Z,20.35
2023-08-12T23:22:55.941Z,21.13
2023-08-12T23:25:26.783Z,18.42
2023-08-12T23:28:00.414Z,22.23
2023-08-12T23:30:31.308Z,15.60
2023-08-12T23:33:02.218Z,22.30
2023-08-12T23:35:33.115Z,22.90
2023-08-12T23:38:04.063Z,20.70
2023-08-12T23:40:35.859Z,21.50
2023-08-12T23:43:09.649Z,23.17
2023-08-12T23:45:40.751Z,18.70
2023-08-12T23:48:11.789Z,19.83
2023-08-12T23:50:42.614Z,21.70
2023-08-12T23:53:13.554Z,20.30
2023-08-12T23:55:44.509Z,13.43
2023-08-12T23:58:18.150Z,14.95
